createdAt,value
2023-04-18T00:00:01.985Z,10.12
2023-04-18T00:02:29.567Z,10.07
2023-04-18T00:04:56.435Z,10.12
2023-04-18T00:07:23.042Z,10.17
2023-04-18T00:09:49.434Z,10.05
2023-04-18T00:12:15.860Z,10.07
2023-04-18T00:14:42.261Z,10.04
2023-04-18T00:17:08.813Z,9.97
2023-04-18T00:19:37.030Z,9.92
2023-04-18T00:22:03.436Z,9.76
2023-04-18T00:24:29.841Z,9.89
2023-04-18T00:26:57.065Z,9.85
2023-04-18T00:29:23.505Z,9.81
2023-04-18T00:31:49.923Z,9.78
2023-04-18T00:34:16.400Z,9.66
2023-04-18T00:36:42.849Z,9.67
2023-04-18T00:39:09.323Z,9.54
2023-04-18T00:41:35.753Z,9.56
2023-04-18T00:44:02.184Z,9.43
2023-04-18T00:46:28.617Z,9.45
2023-04-18T00:48:55.068Z,9.40
2023-04-18T00:51:21.661Z,9.32
2023-04-18T00:53:48.228Z,9.30
2023-04-18T00:56:14.736Z,9.31
2023-04-18T00:58:41.309Z,9.28
2023-04-18T01:01:08.870Z,9.33
2023-04-18T01:03:37.258Z,9.00
2023-04-18T01:06:04.086Z,9.02
2023-04-18T01:08:30.793Z,8.95
2023-04-18T01:10:57.256Z,9.02
2023-04-18T01:13:23.725Z,8.97
2023-04-18T01:15:50.860Z,8.99
2023-04-18T01:18:17.836Z,8.93
2023-04-18T01:20:47.297Z,9.00
2023-04-18T01:23:14.390Z,9.03
2023-04-18T01:25:40.957Z,8.94
2023-04-18T01:28:07.811Z,8.96
2023-04-18T01:30:34.523Z,8.91
2023-04-18T01:33:02.113Z,8.89
2023-04-18T01:35:28.700Z,8.87
2023-04-18T01:37:55.153Z,8.77
2023-04-18T01:40:21.942Z,8.83
2023-04-18T01:42:48.417Z,8.74
2023-04-18T01:45:16.016Z,8.71
2023-04-18T01:47:43.375Z,8.65
2023-04-18T01:50:12.497Z,8.71
2023-04-18T01:52:38.941Z,8.57
2023-04-18T01:55:06.158Z,8.69
2023-04-18T01:57:34.044Z,8.71
2023-04-18T02:00:00.596Z,8.71
2023-04-18T02:02:27.143Z,8.61
2023-04-18T02:04:53.749Z,8.68
2023-04-18T02:07:20.183Z,8.59
2023-04-18T02:09:46.600Z,8.67
2023-04-18T02:12:13.079Z,8.61
2023-04-18T02:14:39.514Z,8.43
2023-04-18T02:17:06.204Z,8.45
2023-04-18T02:19:32.622Z,8.47
2023-04-18T02:21:59.060Z,8.31
2023-04-18T02:24:25.446Z,8.38
2023-04-18T02:26:51.958Z,8.41
2023-04-18T02:29:18.359Z,8.36
2023-04-18T02:31:44.926Z,8.34
2023-04-18T02:34:11.595Z,8.28
2023-04-18T02:36:38.218Z,8.32
2023-04-18T02:39:04.639Z,8.20
2023-04-18T02:41:31.196Z,8.20
2023-04-18T02:43:58.990Z,8.09
2023-04-18T02:46:25.710Z,8.17
2023-04-18T02:48:52.217Z,8.16
2023-04-18T02:51:19.853Z,8.13
2023-04-18T02:53:46.675Z,8.10
2023-04-18T02:56:16.965Z,8.02
2023-04-18T02:58:43.450Z,8.03
2023-04-18T03:01:09.940Z,8.00
2023-04-18T03:03:36.453Z,8.02
2023-04-18T03:06:02.941Z,7.87
2023-04-18T03:08:29.335Z,7.83
2023-04-18T03:10:56.486Z,7.87
2023-04-18T03:13:22.990Z,7.90
2023-04-18T03:15:50.930Z,7.90
2023-04-18T03:18:17.358Z,7.84
2023-04-18T03:20:43.767Z,7.85
2023-04-18T03:23:10.187Z,7.91
2023-04-18T03:25:37.135Z,7.87
2023-04-18T03:28:03.610Z,7.84
2023-04-18T03:30:30.054Z,7.89
2023-04-18T03:32:56.575Z,7.69
2023-04-18T03:35:23.194Z,7.86
2023-04-18T03:37:49.593Z,7.79
2023-04-18T03:40:16.145Z,7.77
2023-04-18T03:42:42.552Z,7.80
2023-04-18T03:45:09.428Z,7.79
2023-04-18T03:47:35.901Z,7.85
2023-04-18T03:50:02.380Z,7.83
2023-04-18T03:52:29.852Z,7.93
2023-04-18T03:54:56.489Z,7.95
2023-04-18T03:57:23.303Z,7.98
2023-04-18T03:59:49.843Z,7.94
2023-04-18T04:02:16.424Z,7.88
2023-04-18T04:04:43.044Z,7.89
2023-04-18T04:07:09.545Z,7.83
2023-04-18T04:09:35.978Z,7.82
2023-04-18T04:12:02.941Z,7.86
2023-04-18T04:14:29.380Z,7.70
2023-04-18T04:16:55.880Z,7.69
2023-04-18T04:19:22.304Z,7.69
2023-04-18T04:21:48.920Z,7.74
2023-04-18T04:24:15.879Z,7.58
2023-04-18T04:26:43.027Z,7.50
2023-04-18T04:29:10.729Z,7.50
2023-04-18T04:31:37.525Z,7.60
2023-04-18T04:34:04.928Z,7.53
2023-04-18T04:36:33.301Z,7.53
2023-04-18T04:38:59.789Z,7.42
2023-04-18T04:41:27.945Z,7.48
2023-04-18T04:43:54.460Z,7.41
2023-04-18T04:46:21.149Z,7.46
2023-04-18T04:48:47.718Z,7.44
2023-04-18T04:51:14.201Z,7.45
2023-04-18T04:53:40.709Z,7.46
2023-04-18T04:56:07.382Z,7.45
2023-04-18T04:58:33.774Z,7.48
2023-04-18T05:01:02.427Z,7.50
2023-04-18T05:03:29.124Z,7.52
2023-04-18T05:05:55.914Z,7.40
2023-04-18T05:08:22.455Z,7.50
2023-04-18T05:10:49.971Z,7.51
2023-04-18T05:13:16.475Z,7.51
2023-04-18T05:15:42.948Z,7.51
2023-04-18T05:18:09.555Z,7.57
2023-04-18T05:20:36.040Z,7.49
2023-04-18T05:23:02.452Z,7.51
2023-04-18T05:25:29.765Z,7.56
2023-04-18T05:27:56.184Z,7.65
2023-04-18T05:30:22.696Z,7.63
2023-04-18T05:32:49.223Z,7.54
2023-04-18T05:35:15.796Z,7.69
2023-04-18T05:37:42.299Z,7.75
2023-04-18T05:40:09.206Z,7.81
2023-04-18T05:42:35.771Z,7.74
2023-04-18T05:45:02.242Z,7.84
2023-04-18T05:47:30.258Z,7.80
2023-04-18T05:49:56.693Z,7.72
2023-04-18T05:52:23.156Z,7.76
2023-04-18T05:54:49.588Z,7.84
2023-04-18T05:57:16.022Z,7.81
2023-04-18T05:59:42.826Z,7.96
2023-04-18T06:02:13.312Z,7.94
2023-04-18T06:04:41.861Z,8.00
2023-04-18T06:07:09.281Z,8.03
2023-04-18T06:09:35.767Z,8.13
2023-04-18T06:12:02.197Z,8.22
2023-04-18T06:14:28.889Z,8.23
2023-04-18T06:16:55.511Z,8.42
2023-04-18T06:19:22.141Z,8.41
2023-04-18T06:21:49.081Z,8.48
2023-04-18T06:24:16.008Z,8.91
2023-04-18T06:26:42.836Z,9.12
2023-04-18T06:29:09.265Z,9.49
2023-04-18T06:31:35.774Z,9.63
2023-04-18T06:34:02.228Z,9.72
2023-04-18T06:36:28.675Z,9.64
2023-04-18T06:38:55.141Z,9.74
2023-04-18T06:41:21.563Z,9.86
2023-04-18T06:44:02.073Z,9.77
2023-04-18T06:46:30.101Z,10.02
2023-04-18T06:48:56.834Z,10.22
2023-04-18T06:51:23.267Z,10.40
2023-04-18T06:53:52.680Z,10.49
2023-04-18T06:56:22.246Z,10.63
2023-04-18T06:58:49.199Z,10.64
2023-04-18T07:01:15.882Z,10.48
2023-04-18T07:03:42.449Z,10.18
2023-04-18T07:06:10.462Z,10.45
2023-04-18T07:08:37.145Z,10.52
2023-04-18T07:11:03.599Z,10.85
2023-04-18T07:13:29.996Z,10.90
2023-04-18T07:15:56.738Z,11.22
2023-04-18T07:18:34.262Z,11.23
2023-04-18T07:21:07.101Z,10.83
2023-04-18T07:23:33.577Z,10.51
2023-04-18T07:26:02.424Z,10.38
2023-04-18T07:28:29.468Z,9.90
2023-04-18T07:30:56.975Z,10.03
2023-04-18T07:33:24.186Z,10.25
2023-04-18T07:35:51.401Z,10.13
2023-04-18T07:38:17.862Z,10.40
2023-04-18T07:40:47.376Z,10.77
2023-04-18T07:43:13.820Z,11.20
2023-04-18T07:45:43.434Z,11.02
2023-04-18T07:48:09.907Z,10.56
2023-04-18T07:50:36.418Z,10.38
2023-04-18T07:53:03.266Z,10.58
2023-04-18T07:55:29.898Z,10.41
2023-04-18T07:57:56.327Z,10.68
2023-04-18T08:00:22.813Z,10.27
2023-04-18T08:02:49.449Z,10.45
2023-04-18T08:05:16.192Z,10.32
2023-04-18T08:07:43.278Z,10.28
2023-04-18T08:10:09.774Z,10.46
2023-04-18T08:12:36.689Z,10.66
2023-04-18T08:15:04.021Z,10.17
2023-04-18T08:17:31.054Z,10.07
2023-04-18T08:19:57.916Z,10.20
2023-04-18T08:22:24.396Z,10.30
2023-04-18T08:25:03.774Z,10.41
2023-04-18T08:27:32.353Z,10.52
2023-04-18T08:29:58.853Z,10.76
2023-04-18T08:32:25.897Z,10.67
2023-04-18T08:34:52.385Z,10.88
2023-04-18T08:37:18.831Z,10.69
2023-04-18T08:39:45.262Z,10.78
2023-04-18T08:42:13.065Z,10.91
2023-04-18T08:44:39.600Z,11.41
2023-04-18T08:47:08.966Z,11.87
2023-04-18T08:49:36.107Z,11.96
2023-04-18T08:52:02.805Z,12.38
2023-04-18T08:54:30.482Z,11.87
2023-04-18T08:57:07.436Z,12.29
2023-04-18T08:59:35.570Z,12.17
2023-04-18T09:02:08.729Z,11.43
2023-04-18T09:04:44.922Z,11.43
2023-04-18T09:07:13.306Z,11.23
2023-04-18T09:09:49.990Z,11.49
2023-04-18T09:12:19.554Z,11.35
2023-04-18T09:14:47.117Z,11.01
2023-04-18T09:17:16.267Z,11.36
2023-04-18T09:19:48.859Z,11.49
2023-04-18T09:22:16.204Z,11.16
2023-04-18T09:24:57.423Z,11.66
2023-04-18T09:27:24.498Z,11.58
2023-04-18T09:29:52.451Z,11.69
2023-04-18T09:32:27.483Z,11.97
2023-04-18T09:34:58.065Z,12.11
2023-04-18T09:37:25.973Z,11.66
2023-04-18T09:39:52.658Z,10.93
2023-04-18T09:42:19.597Z,11.18
2023-04-18T09:44:59.855Z,11.41
2023-04-18T09:47:27.763Z,11.55
2023-04-18T09:49:54.227Z,11.75
2023-04-18T09:52:21.546Z,11.64
2023-04-18T09:54:48.905Z,11.46
2023-04-18T09:57:16.711Z,11.46
2023-04-18T09:59:58.850Z,11.56
2023-04-18T10:02:29.252Z,11.82
2023-04-18T10:04:57.194Z,12.01
2023-04-18T10:07:24.766Z,11.79
2023-04-18T10:09:51.522Z,12.26
2023-04-18T10:12:18.512Z,11.92
2023-04-18T10:14:45.776Z,12.50
2023-04-18T10:17:14.531Z,12.41
2023-04-18T10:19:41.977Z,12.04
2023-04-18T10:22:08.522Z,12.04
2023-04-18T10:24:53.824Z,12.20
2023-04-18T10:28:05.929Z,12.06
2023-04-18T10:30:38.930Z,11.76
2023-04-18T10:33:31.682Z,11.48
2023-04-18T10:36:26.757Z,11.41
2023-04-18T10:38:54.690Z,11.31
2023-04-18T10:41:23.832Z,11.11
2023-04-18T10:44:23.719Z,11.21
2023-04-18T10:46:50.736Z,11.41
2023-04-18T10:49:21.655Z,11.56
2023-04-18T10:51:59.973Z,11.45
2023-04-18T10:54:52.081Z,10.80
2023-04-18T10:57:18.610Z,11.20
2023-04-18T10:59:48.886Z,11.56
2023-04-18T11:02:28.879Z,11.53
2023-04-18T11:05:07.070Z,11.63
2023-04-18T11:07:36.567Z,11.79
2023-04-18T11:10:04.609Z,11.42
2023-04-18T11:12:33.053Z,11.75
2023-04-18T11:15:02.855Z,12.10
2023-04-18T11:17:35.639Z,11.72
2023-04-18T11:20:09.328Z,11.89
2023-04-18T11:22:46.065Z,12.13
2023-04-18T11:25:12.692Z,12.53
2023-04-18T11:27:41.995Z,12.37
2023-04-18T11:30:08.786Z,12.47
2023-04-18T11:32:36.110Z,12.50
2023-04-18T11:35:03.534Z,12.23
2023-04-18T11:37:32.766Z,12.04
2023-04-18T11:39:59.259Z,12.13
2023-04-18T11:42:31.833Z,12.36
2023-04-18T11:44:58.288Z,12.24
2023-04-18T11:47:33.859Z,11.75
2023-04-18T11:50:02.748Z,11.98
2023-04-18T11:52:30.650Z,11.69
2023-04-18T11:55:12.994Z,11.97
2023-04-18T11:57:40.122Z,12.02
2023-04-18T12:00:08.884Z,12.18
2023-04-18T12:02:43.884Z,12.04
2023-04-18T12:05:11.984Z,11.96
2023-04-18T12:07:40.345Z,12.29
2023-04-18T12:10:28.439Z,12.32
2023-04-18T12:12:57.451Z,12.19
2023-04-18T12:15:27.265Z,12.14
2023-04-18T12:17:59.127Z,11.83
2023-04-18T12:20:25.827Z,11.88
2023-04-18T12:22:54.155Z,11.93
2023-04-18T12:25:25.258Z,12.00
2023-04-18T12:27:56.626Z,11.96
2023-04-18T12:30:25.508Z,11.94
2023-04-18T12:32:54.014Z,11.95
2023-04-18T12:35:20.994Z,12.13
2023-04-18T12:37:48.297Z,12.26
2023-04-18T12:40:15.104Z,12.44
2023-04-18T12:42:42.310Z,12.19
2023-04-18T12:45:10.594Z,12.32
2023-04-18T12:47:38.426Z,12.41
2023-04-18T12:50:06.776Z,12.59
2023-04-18T12:52:33.523Z,12.71
2023-04-18T12:55:00.009Z,12.95
2023-04-18T12:57:26.821Z,12.74
2023-04-18T12:59:53.313Z,12.96
2023-04-18T13:02:19.860Z,13.28
2023-04-18T13:04:46.495Z,13.57
2023-04-18T13:07:13.133Z,13.83
2023-04-18T13:09:40.641Z,13.41
2023-04-18T13:12:07.061Z,13.24
2023-04-18T13:14:33.502Z,13.22
2023-04-18T13:16:59.918Z,13.29
2023-04-18T13:19:26.430Z,13.23
2023-04-18T13:21:53.265Z,13.39
2023-04-18T13:24:19.757Z,13.60
2023-04-18T13:26:46.221Z,13.50
2023-04-18T13:29:12.970Z,13.41
2023-04-18T13:31:39.716Z,13.52
2023-04-18T13:34:06.293Z,13.57
2023-04-18T13:36:34.703Z,13.87
2023-04-18T13:39:01.886Z,13.82
2023-04-18T13:41:28.882Z,13.76
2023-04-18T13:43:55.688Z,13.84
2023-04-18T13:46:23.334Z,13.42
2023-04-18T13:48:50.041Z,13.62
2023-04-18T13:51:16.457Z,13.61
2023-04-18T13:53:42.883Z,13.34
2023-04-18T13:56:10.509Z,13.32
2023-04-18T13:58:36.914Z,13.16
2023-04-18T14:01:03.331Z,13.36
2023-04-18T14:03:30.012Z,13.60
2023-04-18T14:05:56.827Z,13.90
2023-04-18T14:08:23.265Z,13.85
2023-04-18T14:10:49.715Z,13.80
2023-04-18T14:13:16.587Z,13.91
2023-04-18T14:15:42.987Z,13.85
2023-04-18T14:18:09.455Z,14.01
2023-04-18T14:20:36.323Z,13.89
2023-04-18T14:23:02.840Z,13.78
2023-04-18T14:25:29.797Z,13.72
2023-04-18T14:28:09.326Z,13.61
2023-04-18T14:30:36.550Z,13.71
2023-04-18T14:33:03.776Z,13.77
2023-04-18T14:35:31.039Z,13.70
2023-04-18T14:37:57.473Z,13.72
2023-04-18T14:40:24.328Z,13.70
2023-04-18T14:42:50.750Z,13.88
2023-04-18T14:45:17.231Z,13.91
2023-04-18T14:47:44.032Z,13.99
2023-04-18T14:50:15.247Z,13.96
2023-04-18T14:52:42.027Z,14.05
2023-04-18T14:55:14.857Z,13.97
2023-04-18T14:57:41.332Z,14.07
2023-04-18T15:00:10.642Z,14.20
2023-04-18T15:02:42.608Z,14.15
2023-04-18T15:05:10.227Z,14.23
2023-04-18T15:07:37.793Z,14.20
2023-04-18T15:10:05.123Z,14.33
2023-04-18T15:12:31.637Z,14.33
2023-04-18T15:14:59.466Z,14.29
2023-04-18T15:17:26.089Z,14.38
2023-04-18T15:19:52.589Z,14.31
2023-04-18T15:22:19.028Z,14.33
2023-04-18T15:24:45.789Z,14.38
2023-04-18T15:27:14.916Z,14.43
2023-04-18T15:29:41.402Z,14.45
2023-04-18T15:32:08.655Z,14.50
2023-04-18T15:34:41.803Z,14.22
2023-04-18T15:37:08.327Z,14.30
2023-04-18T15:39:39.018Z,14.32
2023-04-18T15:42:05.826Z,14.46
2023-04-18T15:44:32.265Z,14.40
2023-04-18T15:47:04.915Z,14.32
2023-04-18T15:49:31.951Z,14.38
2023-04-18T15:51:58.330Z,14.35
2023-04-18T15:54:24.824Z,14.33
2023-04-18T15:56:51.587Z,14.34
2023-04-18T15:59:17.970Z,14.33
2023-04-18T16:01:46.122Z,14.29
2023-04-18T16:04:13.187Z,14.38
2023-04-18T16:06:40.444Z,14.40
2023-04-18T16:09:06.947Z,14.38
2023-04-18T16:11:33.399Z,14.36
2023-04-18T16:13:59.834Z,14.35
2023-04-18T16:16:28.332Z,14.32
2023-04-18T16:18:54.897Z,14.36
2023-04-18T16:21:21.449Z,14.31
2023-04-18T16:23:48.667Z,14.28
2023-04-18T16:26:15.170Z,14.26
2023-04-18T16:28:42.025Z,14.23
2023-04-18T16:31:08.576Z,14.27
2023-04-18T16:33:35.038Z,14.33
2023-04-18T16:36:04.596Z,14.22
2023-04-18T16:38:31.192Z,14.19
2023-04-18T16:40:58.658Z,14.14
2023-04-18T16:43:26.949Z,14.21
2023-04-18T16:45:56.460Z,14.22
2023-04-18T16:48:23.983Z,14.23
2023-04-18T16:50:50.677Z,14.23
2023-04-18T16:53:17.259Z,14.19
2023-04-18T16:55:43.707Z,14.22
2023-04-18T16:58:11.127Z,14.13
2023-04-18T17:00:38.517Z,14.18
2023-04-18T17:03:07.249Z,14.18
2023-04-18T17:05:33.820Z,14.16
2023-04-18T17:08:00.547Z,14.06
2023-04-18T17:10:29.218Z,14.16
2023-04-18T17:12:55.955Z,14.12
2023-04-18T17:15:22.766Z,14.05
2023-04-18T17:17:50.435Z,13.99
2023-04-18T17:20:17.743Z,14.05
2023-04-18T17:22:44.243Z,13.97
2023-04-18T17:25:10.761Z,13.96
2023-04-18T17:27:39.343Z,13.96
2023-04-18T17:30:06.909Z,13.87
2023-04-18T17:32:33.392Z,13.85
2023-04-18T17:35:01.879Z,13.92
2023-04-18T17:37:28.333Z,13.88
2023-04-18T17:39:57.034Z,13.97
2023-04-18T17:42:23.438Z,13.95
2023-04-18T17:44:49.864Z,13.92
2023-04-18T17:47:17.948Z,13.89
2023-04-18T17:49:44.469Z,13.94
2023-04-18T17:52:11.220Z,13.87
2023-04-18T17:54:37.655Z,13.91
2023-04-18T17:57:04.383Z,13.90
2023-04-18T17:59:30.834Z,13.83
2023-04-18T18:01:58.505Z,13.83
2023-04-18T18:04:26.632Z,13.86
2023-04-18T18:06:57.112Z,13.81
2023-04-18T18:09:23.599Z,13.76
2023-04-18T18:11:50.073Z,13.75
2023-04-18T18:14:16.778Z,13.70
2023-04-18T18:16:43.256Z,13.69
2023-04-18T18:19:09.792Z,13.70
2023-04-18T18:21:36.513Z,13.71
2023-04-18T18:24:03.026Z,13.65
2023-04-18T18:26:29.541Z,13.67
2023-04-18T18:28:55.963Z,13.71
2023-04-18T18:31:25.660Z,13.64
2023-04-18T18:33:52.171Z,13.59
2023-04-18T18:36:18.626Z,13.57
2023-04-18T18:38:45.179Z,13.60
2023-04-18T18:41:11.598Z,13.56
2023-04-18T18:43:38.036Z,13.58
2023-04-18T18:46:04.571Z,13.51
2023-04-18T18:48:32.698Z,13.52
2023-04-18T18:50:59.198Z,13.39
2023-04-18T18:53:25.695Z,13.39
2023-04-18T18:55:52.140Z,13.28
2023-04-18T18:58:18.578Z,13.26
2023-04-18T19:00:46.841Z,13.27
2023-04-18T19:03:13.394Z,13.26
2023-04-18T19:05:40.089Z,13.12
2023-04-18T19:08:06.721Z,13.06
2023-04-18T19:10:33.216Z,13.02
2023-04-18T19:13:00.334Z,12.89
2023-04-18T19:15:26.970Z,12.93
2023-04-18T19:17:53.449Z,12.92
2023-04-18T19:20:20.205Z,12.80
2023-04-18T19:22:46.685Z,12.88
2023-04-18T19:25:13.139Z,12.77
2023-04-18T19:27:39.612Z,12.61
2023-04-18T19:30:06.747Z,12.61
2023-04-18T19:32:33.240Z,12.55
2023-04-18T19:34:59.969Z,12.53
2023-04-18T19:37:26.362Z,12.45
2023-04-18T19:39:52.774Z,12.39
2023-04-18T19:42:19.289Z,12.35
2023-04-18T19:44:45.738Z,12.33
2023-04-18T19:47:12.207Z,12.31
2023-04-18T19:49:38.648Z,12.36
2023-04-18T19:52:06.052Z,12.25
2023-04-18T19:54:35.745Z,12.16
2023-04-18T19:57:02.714Z,12.10
2023-04-18T19:59:29.121Z,12.10
2023-04-18T20:01:56.686Z,12.13
2023-04-18T20:04:25.674Z,12.10
2023-04-18T20:06:53.451Z,11.99
2023-04-18T20:09:19.885Z,11.98
2023-04-18T20:11:47.691Z,11.88
2023-04-18T20:14:14.153Z,11.85
2023-04-18T20:16:42.752Z,11.85
2023-04-18T20:21:38.881Z,11.70
2023-04-18T20:24:05.638Z,11.65
2023-04-18T20:26:32.152Z,11.63
2023-04-18T20:28:59.036Z,11.64
2023-04-18T20:31:25.473Z,11.62
2023-04-18T20:33:51.909Z,11.55
2023-04-18T20:36:18.302Z,11.54
2023-04-18T20:38:44.697Z,11.55
2023-04-18T20:41:14.797Z,11.45
2023-04-18T20:43:43.397Z,11.51
2023-04-18T20:46:12.751Z,11.50
2023-04-18T20:48:39.992Z,11.46
2023-04-18T20:51:06.669Z,11.51
2023-04-18T20:53:33.130Z,11.35
2023-04-18T20:56:02.133Z,11.39
2023-04-18T20:58:29.711Z,11.49
2023-04-18T21:00:56.123Z,11.42
2023-04-18T21:03:22.717Z,11.49
2023-04-18T21:05:49.236Z,11.51
2023-04-18T21:08:15.619Z,11.50
2023-04-18T21:10:42.107Z,11.45
2023-04-18T21:13:09.201Z,11.39
2023-04-18T21:15:35.799Z,11.29
2023-04-18T21:18:02.413Z,11.32
2023-04-18T21:20:29.074Z,11.20
2023-04-18T21:22:55.478Z,11.10
2023-04-18T21:25:22.078Z,11.17
2023-04-18T21:27:50.433Z,11.16
2023-04-18T21:30:17.081Z,10.98
2023-04-18T21:32:43.523Z,10.98
2023-04-18T21:35:10.199Z,10.97
2023-04-18T21:37:36.653Z,10.97
2023-04-18T21:40:04.529Z,10.90
2023-04-18T21:42:30.971Z,10.90
2023-04-18T21:44:57.481Z,10.76
2023-04-18T21:47:25.842Z,10.90
2023-04-18T21:49:52.443Z,10.71
2023-04-18T21:52:18.862Z,10.88
2023-04-18T21:54:45.406Z,10.86
2023-04-18T21:57:11.812Z,10.77
2023-04-18T21:59:38.278Z,10.68
2023-04-18T22:02:05.475Z,10.71
2023-04-18T22:04:32.040Z,10.77
2023-04-18T22:06:58.489Z,10.63
2023-04-18T22:09:24.960Z,10.58
2023-04-18T22:11:51.682Z,10.58
2023-04-18T22:14:19.908Z,10.45
2023-04-18T22:16:46.392Z,10.52
2023-04-18T22:19:14.121Z,10.46
2023-04-18T22:21:40.639Z,10.42
2023-04-18T22:24:07.732Z,10.36
2023-04-18T22:26:34.224Z,10.36
2023-04-18T22:29:00.739Z,10.34
2023-04-18T22:31:27.328Z,10.27
2023-04-18T22:33:53.834Z,10.33
2023-04-18T22:36:20.293Z,10.32
2023-04-18T22:38:46.705Z,10.28
2023-04-18T22:41:13.146Z,10.26
2023-04-18T22:43:39.584Z,10.17
2023-04-18T22:46:06.167Z,10.21
2023-04-18T22:48:37.729Z,10.26
2023-04-18T22:51:04.184Z,10.10
2023-04-18T22:53:30.597Z,10.05
2023-04-18T22:55:57.031Z,10.03
2023-04-18T22:58:23.434Z,10.03
2023-04-18T23:00:50.275Z,9.98
2023-04-18T23:03:16.833Z,9.93
2023-04-18T23:05:43.373Z,9.92
2023-04-18T23:08:11.811Z,9.97
2023-04-18T23:10:38.656Z,10.04
2023-04-18T23:13:05.095Z,10.03
2023-04-18T23:15:31.538Z,9.88
2023-04-18T23:17:58.027Z,9.90
2023-04-18T23:20:24.477Z,9.96
2023-04-18T23:22:51.680Z,9.87
2023-04-18T23:25:19.387Z,9.84
2023-04-18T23:27:46.089Z,9.83
2023-04-18T23:30:12.836Z,9.78
2023-04-18T23:32:39.381Z,9.78
2023-04-18T23:35:06.556Z,9.75
2023-04-18T23:37:33.115Z,9.73
2023-04-18T23:39:59.951Z,9.79
2023-04-18T23:42:26.411Z,9.76
2023-04-18T23:44:52.907Z,9.79
2023-04-18T23:47:19.400Z,9.80
2023-04-18T23:49:45.839Z,9.76
2023-04-18T23:52:12.231Z,9.75
2023-04-18T23:54:38.648Z,9.72
2023-04-18T23:57:05.154Z,9.75
2023-04-18T23:59:31.636Z,9.70
